Time;durP1;ratioP1;P1;durP2;ratioP2;P2;SDS_P1;SDS_P2;PMS_P1;PMS_P2;Temp;Humidity;BMP_temperature;BMP_pressure;BME280_temperature;BME280_humidity;BME280_pressure;Samples;Min_cycle;Max_cycle;Signal;HPM_P1;HPM_P2
2024/01/13 00:00:22;;;;;;;38.20;19.97;;;;;;;1.19;100.00;101775.84;5054465;28;20217;-71
2024/01/13 00:02:50;;;;;;;64.70;40.97;;;;;;;1.18;100.00;101772.34;5054315;28;20295;-71
2024/01/13 00:05:19;;;;;;;36.20;21.67;;;;;;;1.18;100.00;101769.72;5054137;28;20210;-71
2024/01/13 00:07:47;;;;;;;34.53;21.10;;;;;;;1.18;100.00;101772.34;5054535;28;20248;-71
2024/01/13 00:10:16;;;;;;;38.50;22.80;;;;;;;1.18;100.00;101766.22;5054295;28;20628;-71
2024/01/13 00:12:46;;;;;;;38.77;22.00;;;;;;;1.17;100.00;101770.63;5054066;28;20242;-71
2024/01/13 00:15:18;;;;;;;47.17;27.33;;;;;;;1.18;100.00;101768.84;5053919;28;20648;-71
2024/01/13 00:17:47;;;;;;;41.13;24.00;;;;;;;1.17;100.00;101759.22;5053925;28;20256;-71
2024/01/13 00:20:16;;;;;;;38.47;22.47;;;;;;;1.17;100.00;101762.72;5053791;28;20256;-71
2024/01/13 00:22:48;;;;;;;43.63;23.73;;;;;;;1.17;100.00;101760.09;5053708;28;20267;-71
2024/01/13 00:25:17;;;;;;;41.43;23.57;;;;;;;1.17;100.00;101757.44;5054257;28;20240;-71
2024/01/13 00:27:46;;;;;;;49.00;27.63;;;;;;;1.16;100.00;101753.13;5053925;28;20224;-71
2024/01/13 00:30:16;;;;;;;51.03;27.40;;;;;;;1.16;100.00;101754.91;5054222;28;20206;-71
2024/01/13 00:32:44;;;;;;;48.17;26.40;;;;;;;1.16;100.00;101747.84;5053742;28;20230;-71
2024/01/13 00:35:13;;;;;;;41.43;24.33;;;;;;;1.16;100.00;101747.84;5053703;28;20218;-71
2024/01/13 00:37:41;;;;;;;59.13;31.30;;;;;;;1.17;100.00;101746.91;5053758;28;20664;-71
2024/01/13 00:40:10;;;;;;;51.97;28.83;;;;;;;1.16;100.00;101734.66;5053846;28;20305;-71
2024/01/13 00:42:39;;;;;;;46.00;25.83;;;;;;;1.16;100.00;101732.03;5053697;28;20228;-71
2024/01/13 00:45:09;;;;;;;56.00;29.50;;;;;;;1.16;100.00;101739.94;5053680;28;20212;-71
2024/01/13 00:47:38;;;;;;;42.90;25.10;;;;;;;1.17;100.00;101738.97;5053723;28;20191;-71
2024/01/13 00:50:09;;;;;;;42.03;26.13;;;;;;;1.18;100.00;101729.28;5053975;28;20190;-71
2024/01/13 00:52:37;;;;;;;38.63;22.83;;;;;;;1.19;100.00;101729.22;5053499;28;20229;-71
2024/01/13 00:55:07;;;;;;;44.93;25.13;;;;;;;1.20;100.00;101720.38;5053447;28;20225;-71
2024/01/13 00:57:35;;;;;;;50.67;30.07;;;;;;;1.20;100.00;101728.28;5053560;28;20318;-71
2024/01/13 01:00:04;;;;;;;50.90;25.13;;;;;;;1.19;100.00;101720.47;5053532;28;20205;-71
2024/01/13 01:02:34;;;;;;;44.77;24.70;;;;;;;1.19;100.00;101721.31;5053415;28;20267;-71
2024/01/13 01:05:02;;;;;;;44.47;26.10;;;;;;;1.19;100.00;101726.59;5053354;28;20210;-71
2024/01/13 01:07:32;;;;;;;45.20;25.40;;;;;;;1.18;100.00;101719.59;5053452;28;20629;-71
2024/01/13 01:10:00;;;;;;;42.73;23.90;;;;;;;1.19;100.00;101717.81;5053091;28;20266;-71
2024/01/13 01:12:29;;;;;;;49.03;26.73;;;;;;;1.18;100.00;101719.59;5053278;28;20222;-70
2024/01/13 01:14:57;;;;;;;52.83;27.27;;;;;;;1.19;100.00;101720.47;5053263;28;20286;-70
2024/01/13 01:17:26;;;;;;;42.80;24.87;;;;;;;1.18;100.00;101722.25;5053258;28;20267;-70
2024/01/13 01:19:56;;;;;;;42.53;22.47;;;;;;;1.20;100.00;101715.09;5053272;28;20210;-70
2024/01/13 01:22:25;;;;;;;42.90;24.90;;;;;;;1.19;100.00;101721.31;5053286;28;20283;-70
2024/01/13 01:24:53;;;;;;;41.50;23.23;;;;;;;1.19;100.00;101718.69;5052473;28;20305;-70
2024/01/13 01:27:21;;;;;;;41.17;23.20;;;;;;;1.19;100.00;101709.91;5052771;28;20664;-71
2024/01/13 01:29:50;;;;;;;38.63;23.37;;;;;;;1.20;100.00;101701.91;5055092;28;20640;-71
2024/01/13 01:32:18;;;;;;;39.13;23.57;;;;;;;1.20;100.00;101707.19;5057244;28;20226;-71
2024/01/13 01:34:47;;;;;;;40.70;23.90;;;;;;;1.20;100.00;101712.44;5056906;28;20222;-71
2024/01/13 01:37:23;;;;;;;43.10;23.70;;;;;;;1.20;100.00;101709.81;5057240;28;20194;-71
2024/01/13 01:39:51;;;;;;;39.30;22.77;;;;;;;1.20;100.00;101701.91;5057487;28;20277;-71
2024/01/13 01:42:20;;;;;;;49.53;27.73;;;;;;;1.21;100.00;101698.34;5056984;28;20294;-71
2024/01/13 01:44:48;;;;;;;41.90;23.67;;;;;;;1.19;100.00;101700.22;5057012;28;20198;-71
2024/01/13 01:47:19;;;;;;;41.63;23.40;;;;;;;1.20;100.00;101691.34;5057038;28;20209;-71
2024/01/13 01:49:49;;;;;;;40.60;22.17;;;;;;;1.20;100.00;101691.34;5057010;28;20228;-71
2024/01/13 01:52:18;;;;;;;39.90;23.50;;;;;;;1.21;100.00;101684.28;5056871;28;20230;-71
2024/01/13 01:54:48;;;;;;;37.63;21.87;;;;;;;1.21;100.00;101681.66;5056796;28;20317;-71
2024/01/13 01:57:19;;;;;;;35.13;21.63;;;;;;;1.21;100.00;101679.03;5056546;28;20607;-71
2024/01/13 01:59:48;;;;;;;39.20;23.57;;;;;;;1.22;100.00;101663.13;5056811;28;20222;-71
2024/01/13 02:02:17;;;;;;;33.50;21.10;;;;;;;1.22;100.00;101659.63;5056623;28;20221;-71
2024/01/13 02:04:47;;;;;;;32.77;19.73;;;;;;;1.20;100.00;101651.78;5056349;28;20621;-71
2024/01/13 02:07:15;;;;;;;33.57;20.70;;;;;;;1.21;100.00;101650.88;5056490;28;20591;-71
2024/01/13 02:09:44;;;;;;;42.03;28.30;;;;;;;1.21;100.00;101645.59;5056588;28;20296;-71
2024/01/13 02:12:14;;;;;;;29.70;17.70;;;;;;;1.21;100.00;101640.31;5056472;28;20254;-72
2024/01/13 02:14:43;;;;;;;31.90;19.33;;;;;;;1.22;100.00;101635.91;5056670;28;20616;-72
2024/01/13 02:17:12;;;;;;;25.77;17.10;;;;;;;1.22;100.00;101641.16;5056480;28;20202;-72
2024/01/13 02:19:40;;;;;;;31.37;18.37;;;;;;;1.21;100.00;101634.19;5056394;28;20301;-72
2024/01/13 02:22:10;;;;;;;29.57;18.07;;;;;;;1.20;100.00;101643.06;5056080;28;20793;-72
2024/01/13 02:24:39;;;;;;;30.27;18.00;;;;;;;1.20;100.00;101633.31;5056310;28;20293;-72
2024/01/13 02:27:07;;;;;;;28.10;18.23;;;;;;;1.21;100.00;101635.03;5056040;28;20614;-71
2024/01/13 02:29:36;;;;;;;28.27;17.87;;;;;;;1.22;100.00;101631.47;5056139;28;20206;-71
2024/01/13 02:32:05;;;;;;;22.73;15.23;;;;;;;1.22;100.00;101638.53;5055749;28;20237;-71
2024/01/13 02:34:33;;;;;;;28.00;16.20;;;;;;;1.22;100.00;101628.84;5055875;28;20225;-71
2024/01/13 02:37:02;;;;;;;26.53;15.40;;;;;;;1.24;100.00;101628.75;5056139;28;20201;-71
2024/01/13 02:39:32;;;;;;;21.60;14.50;;;;;;;1.21;100.00;101619.22;5056068;28;20213;-71
2024/01/13 02:42:00;;;;;;;20.77;14.23;;;;;;;1.21;100.00;101611.31;5055739;28;20209;-71
2024/01/13 02:44:29;;;;;;;19.93;12.67;;;;;;;1.24;100.00;101608.50;5055892;28;20634;-71
2024/01/13 02:46:57;;;;;;;20.43;13.73;;;;;;;1.23;100.00;101601.53;5055919;28;20202;-71
2024/01/13 02:49:26;;;;;;;21.27;14.13;;;;;;;1.22;100.00;101599.84;5054757;28;20205;-71
2024/01/13 02:51:55;;;;;;;19.53;13.17;;;;;;;1.22;100.00;101604.25;5055763;28;20213;-71
2024/01/13 02:54:23;;;;;;;19.97;12.80;;;;;;;1.22;100.00;101593.69;5055983;28;20321;-71
2024/01/13 02:56:53;;;;;;;25.63;16.47;;;;;;;1.20;100.00;101591.13;5055712;28;20230;-72
2024/01/13 02:59:22;;;;;;;20.97;13.77;;;;;;;1.20;100.00;101582.38;5055389;28;20676;-70
2024/01/13 03:01:50;;;;;;;20.57;13.50;;;;;;;1.19;100.00;101578.03;5055568;28;20241;-70
2024/01/13 03:04:19;;;;;;;18.83;12.90;;;;;;;1.20;100.00;101583.22;5055295;28;20762;-70
2024/01/13 03:06:47;;;;;;;20.97;12.97;;;;;;;1.20;100.00;101582.38;5055213;28;20675;-70
2024/01/13 03:09:16;;;;;;;20.67;12.83;;;;;;;1.19;100.00;101568.34;5055193;28;20587;-70
2024/01/13 03:11:45;;;;;;;19.77;12.57;;;;;;;1.21;100.00;101563.81;5055705;28;20248;-71
2024/01/13 03:14:15;;;;;;;18.90;12.30;;;;;;;1.21;100.00;101566.47;5055379;28;20210;-71
2024/01/13 03:16:43;;;;;;;16.50;10.87;;;;;;;1.18;100.00;101569.25;5055346;28;20205;-71
2024/01/13 03:19:12;;;;;;;17.47;12.03;;;;;;;1.19;100.00;101570.97;5055311;28;20300;-71
2024/01/13 03:21:40;;;;;;;14.63;9.87;;;;;;;1.17;100.00;101558.78;5055274;28;20202;-71
2024/01/13 03:24:09;;;;;;;15.23;10.30;;;;;;;1.17;100.00;101559.63;5055165;28;20277;-71
2024/01/13 03:26:37;;;;;;;14.43;9.80;;;;;;;1.18;100.00;101556.06;5055175;28;20206;-71
2024/01/13 03:29:06;;;;;;;18.70;10.27;;;;;;;1.20;100.00;101542.81;5055101;28;20305;-71
2024/01/13 03:31:36;;;;;;;14.57;10.40;;;;;;;1.19;100.00;101541.97;5054800;28;20675;-71
2024/01/13 03:34:04;;;;;;;13.97;9.80;;;;;;;1.21;100.00;101539.22;5054860;28;20229;-71
2024/01/13 03:36:33;;;;;;;13.93;9.87;;;;;;;1.19;100.00;101541.97;5054935;28;20271;-71
2024/01/13 03:39:02;;;;;;;12.70;9.57;;;;;;;1.18;100.00;101545.53;5055206;28;20296;-71
2024/01/13 03:41:31;;;;;;;15.13;10.03;;;;;;;1.18;100.00;101532.34;5055118;28;20206;-71
2024/01/13 03:44:00;;;;;;;15.07;9.80;;;;;;;1.19;100.00;101528.78;5054747;28;20225;-71
2024/01/13 03:46:29;;;;;;;14.17;9.93;;;;;;;1.16;100.00;101528.94;5054779;28;20209;-71
2024/01/13 03:48:58;;;;;;;19.73;12.60;;;;;;;1.17;100.00;101530.63;5054839;28;20206;-71
2024/01/13 03:51:27;;;;;;;20.33;12.50;;;;;;;1.16;100.00;101536.00;5054589;28;20198;-71
2024/01/13 03:53:56;;;;;;;15.33;10.50;;;;;;;1.16;100.00;101536.84;5054265;28;20222;-71
2024/01/13 03:56:24;;;;;;;16.03;10.93;;;;;;;1.16;100.00;101538.63;5054546;28;20226;-71
2024/01/13 03:58:53;;;;;;;14.13;10.80;;;;;;;1.18;100.00;101542.03;5054527;28;20237;-71
2024/01/13 04:01:21;;;;;;;19.50;13.27;;;;;;;1.17;100.00;101542.97;5054446;28;20660;-71
2024/01/13 04:03:50;;;;;;;15.57;10.17;;;;;;;1.14;100.00;101538.69;5054278;28;20230;-71
2024/01/13 04:06:20;;;;;;;14.83;10.07;;;;;;;1.14;100.00;101525.53;5054415;28;20198;-71
2024/01/13 04:08:48;;;;;;;14.90;10.07;;;;;;;1.14;100.00;101522.88;5054362;28;20248;-71
2024/01/13 04:11:17;;;;;;;15.73;10.50;;;;;;;1.14;100.00;101528.16;5054355;28;20210;-71
2024/01/13 04:13:46;;;;;;;25.30;15.00;;;;;;;1.12;100.00;101519.50;5054249;28;20229;-71
2024/01/13 04:16:14;;;;;;;16.90;10.37;;;;;;;1.16;100.00;101522.81;5054183;28;20230;-71
2024/01/13 04:18:43;;;;;;;20.50;12.00;;;;;;;1.15;100.00;101515.81;5054175;28;20573;-71
2024/01/13 04:21:11;;;;;;;20.27;13.17;;;;;;;1.13;100.00;101515.91;5054084;28;20209;-71
2024/01/13 04:23:52;;;;;;;23.87;14.77;;;;;;;1.13;100.00;101510.63;5053752;28;20715;-71
2024/01/13 04:26:21;;;;;;;28.13;15.93;;;;;;;1.12;100.00;101511.56;5054317;28;20191;-71
2024/01/13 04:28:50;;;;;;;15.50;10.47;;;;;;;1.12;100.00;101516.84;5053971;28;20212;-71
2024/01/13 04:31:18;;;;;;;29.73;16.63;;;;;;;1.14;100.00;101504.41;5053633;28;20213;-71
2024/01/13 04:33:47;;;;;;;35.93;17.47;;;;;;;1.11;100.00;101496.69;5053490;28;20273;-71
2024/01/13 04:36:16;;;;;;;34.93;19.30;;;;;;;1.10;100.00;101494.97;5053689;28;20324;-71
2024/01/13 04:38:46;;;;;;;15.33;10.73;;;;;;;1.10;100.00;101489.69;5053530;28;20260;-71
2024/01/13 04:41:16;;;;;;;12.87;8.97;;;;;;;1.11;100.00;101482.63;5053499;28;20630;-71
2024/01/13 04:43:45;;;;;;;14.30;10.07;;;;;;;1.11;100.00;101483.50;5053739;28;20275;-71
2024/01/13 04:46:13;;;;;;;14.63;10.10;;;;;;;1.12;100.00;101486.97;5053696;28;20212;-71
2024/01/13 04:48:43;;;;;;;13.33;10.37;;;;;;;1.10;100.00;101479.13;5053712;28;20202;-71
2024/01/13 04:51:12;;;;;;;11.30;8.13;;;;;;;1.09;100.00;101482.72;5053649;28;20232;-71
2024/01/13 04:53:40;;;;;;;15.07;6.90;;;;;;;1.09;100.00;101477.47;5053524;28;20260;-72
2024/01/13 04:56:09;;;;;;;11.50;7.40;;;;;;;1.08;100.00;101473.13;5053711;28;20225;-71
2024/01/13 04:58:39;;;;;;;11.60;7.23;;;;;;;1.12;100.00;101476.44;5053474;28;20659;-71
2024/01/13 05:01:07;;;;;;;10.90;7.57;;;;;;;1.10;100.00;101479.13;5053518;28;20216;-71
2024/01/13 05:03:36;;;;;;;11.03;7.70;;;;;;;1.09;100.00;101474.81;5052762;28;20226;-71
2024/01/13 05:06:05;;;;;;;14.73;10.80;;;;;;;1.10;100.00;101473.88;5053397;28;20205;-71
2024/01/13 05:08:34;;;;;;;16.43;12.33;;;;;;;1.09;100.00;101471.34;5053490;28;20228;-71
2024/01/13 05:11:02;;;;;;;12.47;9.77;;;;;;;1.08;100.00;101470.47;5053418;28;20332;-71
2024/01/13 05:13:31;;;;;;;9.07;7.00;;;;;;;1.10;100.00;101473.88;5053271;28;20315;-71
2024/01/13 05:16:01;;;;;;;13.13;9.63;;;;;;;1.11;100.00;101472.09;5053288;28;20283;-71
2024/01/13 05:18:29;;;;;;;13.63;10.63;;;;;;;1.11;100.00;101474.72;5053377;28;20297;-71
2024/01/13 05:20:58;;;;;;;10.50;9.40;;;;;;;1.12;100.00;101455.34;5053258;28;20300;-71
2024/01/13 05:23:26;;;;;;;8.67;6.90;;;;;;;1.14;100.00;101469.28;5053249;28;20308;-71
2024/01/13 05:25:55;;;;;;;10.13;7.00;;;;;;;1.09;100.00;101466.06;5053306;28;20202;-71
2024/01/13 05:28:24;;;;;;;8.67;6.90;;;;;;;1.09;100.00;101461.63;5052959;28;20206;-71
2024/01/13 05:30:53;;;;;;;8.50;7.03;;;;;;;1.09;100.00;101463.41;5053216;28;20266;-71
2024/01/13 05:33:23;;;;;;;9.87;7.97;;;;;;;1.05;100.00;101462.72;5053133;28;20225;-71
2024/01/13 05:35:51;;;;;;;10.77;9.63;;;;;;;1.06;100.00;101466.22;5052778;28;20234;-71
2024/01/13 05:38:20;;;;;;;9.27;6.27;;;;;;;1.06;100.00;101461.81;5053287;28;20640;-71
2024/01/13 05:40:49;;;;;;;8.63;6.17;;;;;;;1.07;100.00;101462.63;5053370;28;20247;-71
2024/01/13 05:43:18;;;;;;;10.97;7.67;;;;;;;1.07;100.00;101463.50;5053028;28;20266;-71
2024/01/13 05:45:47;;;;;;;6.17;4.90;;;;;;;1.09;100.00;101452.88;5052996;28;20735;-71
2024/01/13 05:48:15;;;;;;;6.40;5.20;;;;;;;1.09;100.00;101445.81;5053161;28;20245;-71
2024/01/13 05:50:45;;;;;;;6.87;4.20;;;;;;;1.10;100.00;101436.94;5053086;28;20260;-71
2024/01/13 05:53:14;;;;;;;5.93;4.27;;;;;;;1.11;100.00;101441.31;5052928;28;20313;-71
2024/01/13 05:55:43;;;;;;;6.33;4.53;;;;;;;1.11;100.00;101448.34;5052632;28;20622;-71
2024/01/13 05:58:12;;;;;;;7.20;5.40;;;;;;;1.09;100.00;101440.53;5052987;28;20217;-71
2024/01/13 06:00:40;;;;;;;6.93;5.50;;;;;;;1.07;100.00;101439.75;5052983;28;20260;-71
2024/01/13 06:03:09;;;;;;;8.00;5.03;;;;;;;1.07;100.00;101437.13;5052613;28;20652;-71
2024/01/13 06:05:38;;;;;;;6.30;4.90;;;;;;;1.08;100.00;101433.56;5052887;28;20237;-71
2024/01/13 06:08:08;;;;;;;7.33;5.17;;;;;;;1.08;100.00;101427.44;5052874;28;20228;-71
2024/01/13 06:10:37;;;;;;;5.73;4.63;;;;;;;1.08;100.00;101436.19;5052910;28;20259;-71
2024/01/13 06:13:05;;;;;;;6.67;4.40;;;;;;;1.06;100.00;101432.81;5052742;28;20782;-71
2024/01/13 06:15:34;;;;;;;5.60;4.40;;;;;;;1.07;100.00;101425.72;5054094;28;20202;-71
2024/01/13 06:18:03;;;;;;;7.10;4.87;;;;;;;1.09;100.00;101427.34;5056500;28;20211;-71
2024/01/13 06:20:32;;;;;;;9.83;5.23;;;;;;;1.09;100.00;101419.44;5056685;28;20217;-71
2024/01/13 06:23:00;;;;;;;7.00;4.70;;;;;;;1.09;100.00;101408.91;5056276;28;20237;-71
2024/01/13 06:25:32;;;;;;;7.40;4.77;;;;;;;1.09;100.00;101416.81;5056291;28;20699;-71
2024/01/13 06:28:00;;;;;;;5.53;4.90;;;;;;;1.11;100.00;101416.72;5056307;28;20243;-71
2024/01/13 06:30:29;;;;;;;6.53;4.83;;;;;;;1.09;100.00;101414.16;5056400;28;20237;-71
2024/01/13 06:32:57;;;;;;;7.43;5.77;;;;;;;1.08;100.00;101417.72;5056180;28;20232;-71
2024/01/13 06:35:26;;;;;;;8.53;5.10;;;;;;;1.08;100.00;101412.47;5055746;28;20221;-72
2024/01/13 06:37:54;;;;;;;8.03;5.40;;;;;;;1.10;100.00;101415.03;5056076;28;20260;-72
2024/01/13 06:40:23;;;;;;;6.33;5.20;;;;;;;1.09;100.00;101411.53;5056129;28;20626;-72
2024/01/13 06:42:53;;;;;;;6.70;5.20;;;;;;;1.09;100.00;101402.78;5055961;28;20280;-72
2024/01/13 06:45:21;;;;;;;7.57;5.47;;;;;;;1.07;100.00;101389.66;5056001;28;20292;-72
2024/01/13 06:47:50;;;;;;;8.47;5.70;;;;;;;1.07;100.00;101379.09;5055911;28;20248;-71
2024/01/13 06:50:18;;;;;;;6.37;5.13;;;;;;;1.08;100.00;101375.53;5055874;28;20268;-71
2024/01/13 06:52:47;;;;;;;6.60;4.33;;;;;;;1.10;100.00;101365.75;5055689;28;20317;-71
2024/01/13 06:55:16;;;;;;;5.83;4.80;;;;;;;1.10;100.00;101364.94;5056619;28;20236;-71
2024/01/13 06:57:45;;;;;;;7.93;5.40;;;;;;;1.12;100.00;101347.22;5055605;28;20682;-71
2024/01/13 07:00:16;;;;;;;5.33;4.47;;;;;;;1.11;100.00;101346.38;5055659;28;20296;-65
2024/01/13 07:02:45;;;;;;;5.50;4.50;;;;;;;1.09;100.00;101350.88;5055568;28;20615;-67
2024/01/13 07:05:13;;;;;;;5.03;4.10;;;;;;;1.08;100.00;101348.31;5055797;28;20225;-67
2024/01/13 07:07:43;;;;;;;7.80;4.50;;;;;;;1.10;100.00;101335.91;5055171;28;20727;-66
2024/01/13 07:10:11;;;;;;;6.23;3.90;;;;;;;1.10;100.00;101326.19;5055096;28;20742;-66
2024/01/13 07:12:40;;;;;;;4.10;3.70;;;;;;;1.08;100.00;101328.09;5055421;28;20589;-67
2024/01/13 07:15:09;;;;;;;4.50;3.87;;;;;;;1.08;100.00;101317.53;5055407;28;20213;-67
2024/01/13 07:17:39;;;;;;;4.37;3.90;;;;;;;1.06;100.00;101311.50;5055251;28;20230;-67
2024/01/13 07:20:09;;;;;;;6.07;4.33;;;;;;;1.06;100.00;101303.59;5055257;28;20209;-67
2024/01/13 07:22:37;;;;;;;4.53;3.50;;;;;;;1.07;100.00;101302.63;5054897;28;20795;-67
2024/01/13 07:25:06;;;;;;;4.97;4.10;;;;;;;1.06;100.00;101293.06;5055194;28;20771;-67
2024/01/13 07:27:35;;;;;;;4.83;4.03;;;;;;;1.08;100.00;101282.41;5054318;28;20276;-66
2024/01/13 07:30:04;;;;;;;5.20;3.50;;;;;;;1.07;100.00;101288.59;5055088;28;20206;-66
2024/01/13 07:32:33;;;;;;;3.83;3.43;;;;;;;1.08;100.00;101291.16;5054743;28;20703;-66
2024/01/13 07:35:03;;;;;;;4.90;4.00;;;;;;;1.07;100.00;101289.47;5054738;28;20229;-66
2024/01/13 07:37:32;;;;;;;6.00;4.47;;;;;;;1.07;100.00;101284.19;5055007;28;20292;-67
2024/01/13 07:40:01;;;;;;;4.87;3.83;;;;;;;1.08;100.00;101285.88;5055161;28;20257;-67
2024/01/13 07:42:29;;;;;;;6.47;4.57;;;;;;;1.09;100.00;101271.78;5054832;28;20261;-67
2024/01/13 07:44:57;;;;;;;4.47;3.57;;;;;;;1.10;100.00;101280.53;5054836;28;20241;-67
2024/01/13 07:47:26;;;;;;;4.90;3.70;;;;;;;1.09;100.00;101284.97;5054805;28;20633;-67
2024/01/13 07:49:55;;;;;;;4.27;3.43;;;;;;;1.10;100.00;101293.72;5054983;28;20194;-67
2024/01/13 07:52:25;;;;;;;5.10;4.03;;;;;;;1.11;100.00;101301.53;5054675;28;20312;-67
2024/01/13 07:54:53;;;;;;;4.83;3.13;;;;;;;1.12;100.00;101297.13;5054677;28;20297;-67
2024/01/13 07:57:22;;;;;;;4.03;3.40;;;;;;;1.14;100.00;101285.53;5054470;28;20261;-67
2024/01/13 07:59:50;;;;;;;5.30;3.57;;;;;;;1.13;100.00;101278.56;5054573;28;20210;-67
2024/01/13 08:02:19;;;;;;;4.20;3.30;;;;;;;1.15;100.00;101287.25;5054177;28;20240;-67
2024/01/13 08:04:47;;;;;;;5.17;2.90;;;;;;;1.15;100.00;101268.78;5054480;28;20225;-67
2024/01/13 08:07:16;;;;;;;4.87;3.13;;;;;;;1.15;100.00;101271.44;5054473;28;20285;-67
2024/01/13 08:09:47;;;;;;;4.27;3.10;;;;;;;1.16;100.00;101283.69;5054392;28;20206;-67
2024/01/13 08:12:16;;;;;;;4.03;2.90;;;;;;;1.18;100.00;101278.31;5054535;28;20229;-67
2024/01/13 08:14:44;;;;;;;3.37;2.97;;;;;;;1.17;100.00;101268.69;5054305;28;20206;-67
2024/01/13 08:17:13;;;;;;;2.63;2.33;;;;;;;1.17;100.00;101264.25;5053876;28;20726;-67
2024/01/13 08:19:42;;;;;;;3.10;2.53;;;;;;;1.19;100.00;101275.59;5054190;28;20297;-67
2024/01/13 08:22:11;;;;;;;3.40;3.00;;;;;;;1.19;100.00;101272.94;5054328;28;20236;-67
2024/01/13 08:24:40;;;;;;;3.23;2.83;;;;;;;1.20;100.00;101263.25;5054122;28;20233;-65
2024/01/13 08:27:10;;;;;;;4.03;3.33;;;;;;;1.21;100.00;101265.78;5054025;28;20233;-65
2024/01/13 08:29:38;;;;;;;4.43;2.90;;;;;;;1.20;100.00;101257.97;5054023;28;20213;-66
2024/01/13 08:32:07;;;;;;;3.83;3.00;;;;;;;1.21;100.00;101247.31;5053892;28;20238;-66
2024/01/13 08:34:38;;;;;;;3.00;2.70;;;;;;;1.22;100.00;101258.72;5053738;28;20245;-66
2024/01/13 08:37:06;;;;;;;3.00;2.70;;;;;;;1.23;100.00;101263.94;5053840;28;20232;-66
2024/01/13 08:39:35;;;;;;;3.23;2.37;;;;;;;1.25;100.00;101248.84;5053455;28;20742;-66
2024/01/13 08:42:03;;;;;;;30.77;27.43;;;;;;;1.24;100.00;101247.16;5053409;28;20672;-66
2024/01/13 08:44:33;;;;;;;5.60;4.73;;;;;;;1.26;100.00;101247.94;5053782;28;20296;-66
2024/01/13 08:47:02;;;;;;;7.83;6.27;;;;;;;1.27;100.00;101252.25;5053834;28;20256;-66
2024/01/13 08:49:30;;;;;;;9.90;8.17;;;;;;;1.28;100.00;101255.72;5053673;28;20291;-66
2024/01/13 08:51:59;;;;;;;5.60;4.97;;;;;;;1.29;100.00;101247.75;5053602;28;20256;-66
2024/01/13 08:54:27;;;;;;;4.70;4.30;;;;;;;1.31;100.00;101247.63;5053643;28;20288;-66
2024/01/13 08:56:57;;;;;;;4.50;4.00;;;;;;;1.32;100.00;101242.28;5053562;28;20205;-67
2024/01/13 08:59:26;;;;;;;5.53;4.80;;;;;;;1.34;100.00;101234.28;5053517;28;20222;-66
2024/01/13 09:01:55;;;;;;;6.63;5.90;;;;;;;1.37;100.00;101207.75;5053192;28;20750;-66
2024/01/13 09:04:24;;;;;;;4.30;3.90;;;;;;;1.38;100.00;101199.72;5053531;28;20210;-66
2024/01/13 09:06:53;;;;;;;7.70;6.90;;;;;;;1.38;100.00;101202.34;5053140;28;20237;-66
2024/01/13 09:09:21;;;;;;;4.43;3.87;;;;;;;1.41;100.00;101204.81;5053419;28;20233;-66
2024/01/13 09:11:50;;;;;;;5.20;4.37;;;;;;;1.44;100.00;101204.63;5053238;28;20690;-66
2024/01/13 09:14:19;;;;;;;3.67;3.27;;;;;;;1.45;100.00;101206.31;5053603;28;20301;-66
2024/01/13 09:16:47;;;;;;;4.53;3.43;;;;;;;1.46;100.00;101194.84;5053370;28;20268;-66
2024/01/13 09:19:17;;;;;;;4.50;3.73;;;;;;;1.48;100.00;101210.56;5053251;28;20283;-66
2024/01/13 09:21:46;;;;;;;4.73;4.03;;;;;;;1.49;100.00;101207.84;5053601;28;20284;-66
2024/01/13 09:24:16;;;;;;;4.07;3.50;;;;;;;1.51;100.00;101200.69;5053006;28;20680;-66
2024/01/13 09:26:48;;;;;;;6.13;4.00;;;;;;;1.50;100.00;101185.81;5053289;28;20241;-67
2024/01/13 09:29:19;;;;;;;5.00;4.13;;;;;;;1.50;100.00;101183.16;5053333;28;20187;-66
2024/01/13 09:31:50;;;;;;;4.60;4.10;;;;;;;1.53;100.00;101176.84;5052890;28;20564;-66
2024/01/13 09:34:22;;;;;;;5.87;4.20;;;;;;;1.52;100.00;101176.00;5053179;28;20249;-66
2024/01/13 09:36:51;;;;;;;6.80;5.27;;;;;;;1.52;100.00;101175.16;5053212;28;20240;-66
2024/01/13 09:39:22;;;;;;;5.20;4.70;;;;;;;1.52;100.00;101175.16;5053143;28;20214;-67
2024/01/13 09:41:54;;;;;;;6.30;5.27;;;;;;;1.53;100.00;101176.84;5053139;28;20198;-66
2024/01/13 09:44:25;;;;;;;6.80;5.00;;;;;;;1.54;100.00;101170.66;5053167;28;20268;-66
2024/01/13 09:46:56;;;;;;;7.17;5.43;;;;;;;1.53;100.00;101156.59;5053025;28;20656;-66
2024/01/13 09:49:29;;;;;;;6.07;5.03;;;;;;;1.53;100.00;101159.22;5052816;28;20683;-65
2024/01/13 09:51:59;;;;;;;6.33;5.27;;;;;;;1.56;100.00;101154.69;5056820;28;20202;-67
2024/01/13 09:54:29;;;;;;;6.77;5.60;;;;;;;1.55;100.00;101145.94;5056844;28;20703;-67
2024/01/13 09:56:59;;;;;;;6.70;5.47;;;;;;;1.56;100.00;101160.84;5056603;28;20634;-67
2024/01/13 09:59:29;;;;;;;7.00;5.43;;;;;;;1.60;100.00;101169.41;5056788;28;20214;-66
2024/01/13 10:02:02;;;;;;;8.27;6.43;;;;;;;1.65;100.00;101175.25;5056752;28;20205;-66
2024/01/13 10:04:36;;;;;;;6.90;5.60;;;;;;;1.66;100.00;101177.81;5056790;28;20199;-66
2024/01/13 10:07:08;;;;;;;6.37;5.43;;;;;;;1.68;100.00;101180.38;5056990;28;20278;-66
2024/01/13 10:09:39;;;;;;;6.73;6.00;;;;;;;1.71;100.00;101180.19;5056418;28;20274;-66
2024/01/13 10:12:08;;;;;;;8.00;6.20;;;;;;;1.72;100.00;101184.50;5056542;28;20210;-67
2024/01/13 10:14:42;;;;;;;7.40;6.10;;;;;;;1.73;100.00;101179.13;5056646;28;20277;-66
2024/01/13 10:17:12;;;;;;;7.47;5.90;;;;;;;1.75;100.00;101181.66;5056628;28;20194;-66
2024/01/13 10:19:44;;;;;;;6.57;5.47;;;;;;;1.76;100.00;101184.22;5056402;28;20269;-66
2024/01/13 10:22:15;;;;;;;7.13;6.03;;;;;;;1.77;100.00;101171.88;5056396;28;20228;-66
2024/01/13 10:24:44;;;;;;;7.77;6.47;;;;;;;1.75;100.00;101166.69;5056406;28;20186;-67
2024/01/13 10:27:13;;;;;;;8.93;6.73;;;;;;;1.73;100.00;101160.66;5056535;28;20202;-67
2024/01/13 10:29:42;;;;;;;8.70;7.37;;;;;;;1.73;100.00;101160.66;5056216;28;20202;-66
2024/01/13 10:32:12;;;;;;;10.47;7.93;;;;;;;1.75;100.00;101142.06;5056172;28;20635;-66
2024/01/13 10:34:49;;;;;;;11.23;8.10;;;;;;;1.74;100.00;101122.78;5055703;28;20668;-67
2024/01/13 10:37:17;;;;;;;15.97;11.43;;;;;;;1.76;100.00;101123.50;5056171;28;20243;-67
2024/01/13 10:39:46;;;;;;;11.87;8.80;;;;;;;1.78;100.00;101108.41;5055994;28;20275;-66
2024/01/13 10:42:19;;;;;;;10.43;7.60;;;;;;;1.80;100.00;101111.81;5055650;28;20668;-67
2024/01/13 10:44:56;;;;;;;10.80;8.13;;;;;;;1.82;100.00;101114.34;5056020;28;20252;-66
2024/01/13 10:47:31;;;;;;;10.03;7.93;;;;;;;1.84;100.00;101112.47;5056019;28;20193;-66
2024/01/13 10:50:02;;;;;;;9.23;7.23;;;;;;;1.85;100.00;101103.63;5055937;28;20186;-66
2024/01/13 10:52:38;;;;;;;9.37;7.77;;;;;;;1.87;100.00;101099.94;5055505;28;20660;-66
2024/01/13 10:55:09;;;;;;;9.20;7.33;;;;;;;1.89;100.00;101089.25;5055831;28;20225;-66
2024/01/13 10:57:38;;;;;;;9.80;7.13;;;;;;;1.92;100.00;101091.69;5055819;28;20281;-66
2024/01/13 11:00:10;;;;;;;11.40;8.60;;;;;;;1.93;100.00;101080.22;5055661;28;20395;-66
2024/01/13 11:02:40;;;;;;;10.47;7.80;;;;;;;1.93;100.00;101065.22;5054358;28;20222;-66
2024/01/13 11:05:10;;;;;;;9.80;7.57;;;;;;;1.93;100.00;101064.38;5055673;28;20202;-66
2024/01/13 11:07:40;;;;;;;10.53;8.17;;;;;;;1.95;100.00;101070.41;5055592;28;20201;-67
2024/01/13 11:10:14;;;;;;;11.77;7.47;;;;;;;1.98;100.00;101063.16;5055553;28;20202;-66
2024/01/13 11:12:46;;;;;;;11.60;8.10;;;;;;;2.00;100.00;101058.59;5055458;28;20264;-66
2024/01/13 11:15:18;;;;;;;8.67;6.83;;;;;;;2.03;100.00;101054.91;5055119;28;20233;-66
2024/01/13 11:17:47;;;;;;;11.03;8.47;;;;;;;2.02;100.00;101047.97;5055356;28;20193;-66
2024/01/13 11:20:19;;;;;;;11.40;8.83;;;;;;;2.04;100.00;101046.06;5055270;28;20252;-66
2024/01/13 11:22:58;;;;;;;10.53;8.77;;;;;;;2.07;100.00;101040.56;5055231;28;20317;-66
2024/01/13 11:25:28;;;;;;;11.43;8.43;;;;;;;2.08;100.00;101037.00;5055238;28;20640;-66